Time;durP1;ratioP1;P1;durP2;ratioP2;P2;SDS_P1;SDS_P2;PMS_P1;PMS_P2;Temp;Humidity;BMP_temperature;BMP_pressure;BME280_temperature;BME280_humidity;BME280_pressure;Samples;Min_cycle;Max_cycle;Signal;HPM_P1;HPM_P2
2023/05/16 00:03:09;;;;;;;;;;;18.20;41.90;;;17.18;42.40;100467.28;12259347;19;19915;-87
2023/05/16 00:07:11;;;;;;;;;;;18.30;41.90;;;17.30;42.38;100486.47;12260237;19;19910;-89
2023/05/16 00:11:13;;;;;;;;;;;18.30;41.90;;;17.29;42.41;100471.63;12256370;19;19939;-88
2023/05/16 00:15:14;;;;;;;;;;;18.30;42.00;;;17.33;42.48;100491.47;12255897;19;20602;-87
2023/05/16 00:19:15;;;;;;;;;;;18.30;41.80;;;17.02;42.43;100436.13;12256196;19;19922;-88
2023/05/16 00:23:17;;;;;;;;;;;18.30;41.90;;;17.25;42.34;100479.81;12256680;19;19939;-88
2023/05/16 00:27:18;;;;;;;;;;;18.30;41.90;;;17.24;42.55;100480.75;12258637;19;19938;-88
2023/05/16 00:31:20;;;;;;;;;;;18.30;42.00;;;17.31;42.39;100488.13;12252999;19;20266;-89
2023/05/16 00:35:21;;;;;;;;;;;18.40;42.10;;;17.35;42.62;100500.94;12252949;19;19916;-88
2023/05/16 00:39:24;;;;;;;;;;;18.40;42.20;;;17.29;42.39;100490.09;12254075;19;19911;-87
2023/05/16 00:43:25;;;;;;;;;;;18.40;42.20;;;17.30;42.69;100495.22;12255445;19;19915;-88
2023/05/16 00:47:27;;;;;;;;;;;18.30;42.20;;;17.21;42.46;100483.66;12254966;19;19927;-88
2023/05/16 00:51:28;;;;;;;;;;;18.40;42.10;;;17.27;42.67;100505.22;12250077;19;19940;-88
2023/05/16 00:55:31;;;;;;;;;;;18.40;42.20;;;17.13;42.68;100480.88;12256707;19;19907;-88
2023/05/16 00:59:33;;;;;;;;;;;18.30;42.30;;;17.05;42.51;100471.94;12253942;19;19910;-88
2023/05/16 01:03:34;;;;;;;;;;;18.40;42.30;;;17.32;42.63;100516.22;12253987;19;19919;-88
2023/05/16 01:07:36;;;;;;;;;;;18.40;42.40;;;17.31;42.79;100527.72;12252913;19;20332;-88
2023/05/16 01:12:32;;;;;;;;;;;18.30;42.30;;;17.33;42.80;100525.78;12251572;19;19921;-87
2023/05/16 01:17:05;;;;;;;;;;;18.30;42.40;;;17.29;42.79;100527.88;12248083;19;19925;-88
2023/05/16 01:21:14;;;;;;;;;;;18.30;42.40;;;17.22;42.58;100527.56;12248414;19;19942;-88
2023/05/16 01:25:38;;;;;;;;;;;18.30;42.60;;;17.27;42.74;100547.44;12254098;19;19939;-88
2023/05/16 01:29:39;;;;;;;;;;;18.30;42.50;;;17.24;42.91;100552.00;12247414;19;19925;-88
2023/05/16 01:33:42;;;;;;;;;;;18.20;42.40;;;17.18;43.05;100557.81;12252276;19;19915;-88
2023/05/16 01:37:49;;;;;;;;;;;18.20;42.50;;;17.06;42.74;100543.03;12251101;19;20346;-88
2023/05/16 01:42:09;;;;;;;;;;;18.20;42.40;;;17.07;42.81;100560.56;12249621;19;19927;-88
2023/05/16 01:46:19;;;;;;;;;;;18.20;42.50;;;17.02;42.92;100547.75;12252595;19;20344;-88
2023/05/16 01:50:24;;;;;;;;;;;18.10;42.50;;;17.11;43.11;100583.06;12251353;19;19914;-88
2023/05/16 01:54:32;;;;;;;;;;;18.10;42.60;;;17.10;43.03;100577.94;12251273;19;19915;-88
2023/05/16 01:58:35;;;;;;;;;;;18.10;42.60;;;17.11;42.95;100582.22;12251167;19;19983;-88
2023/05/16 02:02:37;;;;;;;;;;;18.10;42.90;;;17.09;43.00;100602.63;12247410;19;20596;-88
2023/05/16 02:06:39;;;;;;;;;;;18.10;42.80;;;17.00;43.12;100596.31;12252373;19;19930;-88
2023/05/16 02:10:40;;;;;;;;;;;18.00;42.70;;;16.89;42.98;100589.31;12247009;19;19922;-88
2023/05/16 02:14:42;;;;;;;;;;;18.00;42.60;;;16.93;43.11;100593.38;12249436;19;19922;-88
2023/05/16 02:18:44;;;;;;;;;;;18.00;42.90;;;16.94;43.07;100608.22;12246748;19;19918;-88
2023/05/16 02:22:48;;;;;;;;;;;18.00;43.30;;;16.81;43.31;100597.88;12246211;19;19970;-88
2023/05/16 02:26:50;;;;;;;;;;;17.90;42.90;;;16.66;42.92;100583.31;12250201;19;20329;-88
2023/05/16 02:30:59;;;;;;;;;;;17.80;42.90;;;16.72;43.20;100614.44;12244947;19;20349;-88
2023/05/16 02:35:00;;;;;;;;;;;17.80;43.00;;;16.74;43.15;100633.59;12249434;19;19925;-88
2023/05/16 02:39:03;;;;;;;;;;;17.80;43.10;;;16.70;43.34;100639.25;12247106;19;19929;-87
2023/05/16 02:43:04;;;;;;;;;;;17.70;42.90;;;16.54;43.43;100629.13;12249259;19;19919;-88
2023/05/16 02:47:06;;;;;;;;;;;17.70;43.50;;;16.40;43.31;100614.44;12250200;19;19907;-88
2023/05/16 02:51:08;;;;;;;;;;;17.60;43.00;;;16.55;43.17;100647.47;12246852;19;20358;-88
2023/05/16 02:55:10;;;;;;;;;;;17.60;42.90;;;16.49;43.38;100645.31;12249581;19;19919;-88
2023/05/16 02:59:12;;;;;;;;;;;17.50;42.80;;;16.41;43.42;100644.25;12247518;19;20592;-88
2023/05/16 03:03:13;;;;;;;;;;;17.50;42.80;;;16.34;43.35;100647.41;12248241;19;19914;-88
2023/05/16 03:07:16;;;;;;;;;;;17.40;42.80;;;16.23;43.48;100657.13;12248708;19;19919;-87
2023/05/16 03:11:20;;;;;;;;;;;17.30;42.80;;;16.12;43.54;100650.06;12246300;19;19932;-88
2023/05/16 03:15:21;;;;;;;;;;;17.30;42.90;;;16.17;43.58;100676.88;12255610;19;19911;-88
2023/05/16 03:19:23;;;;;;;;;;;17.20;42.70;;;16.10;43.36;100678.34;12261612;19;19918;-88
2023/05/16 03:23:26;;;;;;;;;;;17.10;42.70;;;15.85;43.47;100650.47;12261494;19;20322;-87
2023/05/16 03:27:27;;;;;;;;;;;17.10;42.80;;;16.00;43.61;100695.84;12260699;19;19929;-88
2023/05/16 03:31:30;;;;;;;;;;;17.10;43.00;;;15.83;43.61;100662.94;12253529;19;19935;-87
2023/05/16 03:35:33;;;;;;;;;;;17.00;43.00;;;15.87;43.61;100675.72;12257874;19;19970;-87
2023/05/16 03:39:36;;;;;;;;;;;17.00;43.10;;;15.89;43.53;100696.69;12256766;19;19922;-87
2023/05/16 03:43:37;;;;;;;;;;;16.90;42.90;;;15.88;43.76;100695.84;12257911;19;20347;-87
2023/05/16 03:47:39;;;;;;;;;;;16.90;43.00;;;15.69;43.61;100664.84;12256078;19;19955;-88
2023/05/16 03:51:40;;;;;;;;;;;16.90;43.00;;;15.88;43.64;100702.91;12254964;19;19915;-87
2023/05/16 03:55:42;;;;;;;;;;;16.90;43.10;;;15.87;43.76;100712.59;12254084;19;19922;-88
2023/05/16 03:59:44;;;;;;;;;;;16.80;43.00;;;15.85;43.82;100719.78;12253879;19;19934;-88
2023/05/16 04:03:45;;;;;;;;;;;16.80;42.90;;;15.79;43.76;100711.50;12248020;19;19937;-87
2023/05/16 04:07:47;;;;;;;;;;;16.80;43.20;;;15.82;43.87;100727.06;12255786;19;19917;-87
2023/05/16 04:11:49;;;;;;;;;;;16.80;43.20;;;15.78;43.77;100717.75;12250491;19;19923;-85
2023/05/16 04:15:50;;;;;;;;;;;16.80;43.10;;;15.49;43.73;100684.75;12251653;19;19929;-87
2023/05/16 04:19:52;;;;;;;;;;;16.80;43.10;;;15.69;43.88;100735.09;12252523;19;19918;-85
2023/05/16 04:23:53;;;;;;;;;;;16.70;43.40;;;15.56;43.84;100734.31;12256674;19;20250;-87
2023/05/16 04:27:56;;;;;;;;;;;16.70;43.20;;;15.55;43.81;100746.63;12255132;19;19915;-88
2023/05/16 04:31:57;;;;;;;;;;;16.70;43.30;;;15.37;43.78;100719.06;12245876;19;19939;-87
2023/05/16 04:35:59;;;;;;;;;;;16.70;43.60;;;15.52;43.99;100753.91;12253782;19;19942;-86
2023/05/16 04:40:01;;;;;;;;;;;16.60;43.10;;;15.50;43.94;100764.56;12249005;19;20383;-87
2023/05/16 04:44:03;;;;;;;;;;;16.60;43.20;;;15.24;44.09;100748.94;12251958;19;19974;-86
2023/05/16 04:48:05;;;;;;;;;;;16.50;43.10;;;15.32;43.92;100774.66;12251495;19;19929;-86
2023/05/16 04:52:10;;;;;;;;;;;16.50;43.60;;;15.43;43.96;100802.81;12247141;19;19966;-86
2023/05/16 04:56:11;;;;;;;;;;;16.50;43.50;;;15.28;43.87;100789.00;12254346;19;19915;-89
2023/05/16 05:00:15;;;;;;;;;;;16.40;43.40;;;15.34;44.09;100812.25;12252772;19;19942;-89
2023/05/16 05:04:16;;;;;;;;;;;16.40;43.50;;;15.22;44.10;100802.59;12256958;19;20326;-89
2023/05/16 05:08:18;;;;;;;;;;;16.40;43.40;;;15.19;44.11;100805.47;12255453;19;19927;-88
2023/05/16 05:12:20;;;;;;;;;;;16.30;43.70;;;15.13;44.06;100812.03;12256431;19;19919;-85
2023/05/16 05:16:22;;;;;;;;;;;16.30;43.40;;;15.16;44.17;100824.09;12256351;19;19923;-85
2023/05/16 05:20:26;;;;;;;;;;;16.30;43.30;;;15.17;44.24;100844.19;12260142;19;19926;-85
2023/05/16 05:24:28;;;;;;;;;;;16.50;43.90;;;15.12;44.13;100851.56;12263979;19;20333;-84
2023/05/16 05:28:30;;;;;;;;;;;16.20;43.70;;;14.92;44.34;100837.25;12262759;19;19925;-85
2023/05/16 05:32:31;;;;;;;;;;;16.20;43.60;;;14.89;44.21;100851.44;12259969;19;19952;-85
2023/05/16 05:36:33;;;;;;;;;;;16.10;43.60;;;14.95;44.48;100865.94;12264328;19;19931;-85
2023/05/16 05:40:35;;;;;;;;;;;16.10;43.50;;;14.83;44.25;100871.13;12261129;19;19915;-85
2023/05/16 05:44:37;;;;;;;;;;;16.00;43.70;;;14.89;44.44;100882.16;12259755;19;20357;-85
2023/05/16 05:48:38;;;;;;;;;;;16.00;43.90;;;14.84;44.35;100879.84;12263215;19;19911;-85
2023/05/16 05:52:40;;;;;;;;;;;16.00;44.00;;;14.77;44.53;100873.34;12257791;19;19927;-85
2023/05/16 05:56:42;;;;;;;;;;;15.90;43.80;;;14.82;44.32;100897.50;12258261;19;19922;-85
2023/05/16 06:00:44;;;;;;;;;;;15.90;43.90;;;14.73;44.51;100909.53;12256754;19;19927;-85
2023/05/16 06:04:46;;;;;;;;;;;15.90;44.50;;;14.74;44.46;100921.75;12258493;19;20301;-85
2023/05/16 06:08:47;;;;;;;;;;;15.80;44.00;;;14.66;44.50;100908.25;12254697;19;19927;-85
2023/05/16 06:12:49;;;;;;;;;;;15.80;44.50;;;14.69;44.63;100909.84;12247617;19;19982;-85
2023/05/16 06:16:51;;;;;;;;;;;15.80;43.80;;;14.71;44.57;100910.56;12249580;19;19927;-84
2023/05/16 06:20:53;;;;;;;;;;;15.80;44.00;;;14.60;44.63;100888.50;12247242;19;19925;-85
2023/05/16 06:24:54;;;;;;;;;;;15.70;43.80;;;14.55;44.58;100881.88;12248747;19;19923;-84
2023/05/16 06:28:56;;;;;;;;;;;15.70;43.90;;;14.57;44.54;100899.22;12248185;19;19943;-84
2023/05/16 06:32:57;;;;;;;;;;;15.80;44.00;;;14.60;44.67;100909.53;12245334;19;19915;-84
2023/05/16 06:36:59;;;;;;;;;;;15.80;44.00;;;14.58;44.70;100915.84;12247185;19;19931;-84
2023/05/16 06:41:01;;;;;;;;;;;15.70;44.00;;;14.62;44.78;100924.38;12246192;19;19938;-85
2023/05/16 06:45:02;;;;;;;;;;;15.70;43.80;;;14.78;44.81;100940.75;12244778;19;19911;-85
2023/05/16 06:49:05;;;;;;;;;;;15.80;44.10;;;14.72;44.80;100933.31;12248830;19;19925;-85
2023/05/16 06:53:07;;;;;;;;;;;15.90;44.00;;;14.83;44.58;100957.91;12254379;19;19919;-85
2023/05/16 06:57:09;;;;;;;;;;;15.80;44.00;;;14.85;44.69;100965.66;12257814;19;19963;-85
2023/05/16 07:01:11;;;;;;;;;;;15.90;44.10;;;14.72;44.72;100938.56;12253324;19;19930;-84
2023/05/16 07:05:12;;;;;;;;;;;15.90;43.80;;;14.87;44.78;100958.50;12258750;19;19927;-85
2023/05/16 07:09:14;;;;;;;;;;;15.90;43.90;;;14.85;44.71;100965.66;12260037;19;19915;-85
2023/05/16 07:13:16;;;;;;;;;;;16.00;43.80;;;14.91;44.65;100985.47;12251993;19;20341;-85
2023/05/16 07:17:17;;;;;;;;;;;16.00;44.30;;;14.76;44.81;100963.69;12260016;19;19911;-85
2023/05/16 07:21:19;;;;;;;;;;;16.00;44.40;;;14.89;44.84;100982.91;12255891;19;19915;-82
2023/05/16 07:25:20;;;;;;;;;;;16.00;43.90;;;14.92;44.85;100982.69;12260625;19;20341;-84
2023/05/16 07:29:22;;;;;;;;;;;16.00;43.70;;;14.97;44.83;100982.38;12257655;19;19933;-85
2023/05/16 07:33:24;;;;;;;;;;;16.00;43.70;;;14.96;44.79;100978.94;12256774;19;19915;-85
2023/05/16 07:37:25;;;;;;;;;;;16.10;44.00;;;15.01;44.81;100982.09;12256613;19;19922;-85
2023/05/16 07:41:28;;;;;;;;;;;16.10;43.80;;;15.06;44.93;100992.25;12252765;19;20491;-85
2023/05/16 07:45:30;;;;;;;;;;;16.10;45.30;;;15.06;44.85;100994.88;12255241;19;19992;-85
2023/05/16 07:49:31;;;;;;;;;;;16.20;44.00;;;14.99;44.86;100977.88;12256545;19;20305;-85
2023/05/16 07:53:33;;;;;;;;;;;16.20;43.90;;;15.07;44.89;100995.72;12250881;19;19919;-85
2023/05/16 07:57:34;;;;;;;;;;;16.20;43.80;;;15.04;45.16;100989.75;12258635;19;20334;-85
2023/05/16 08:01:37;;;;;;;;;;;16.20;43.90;;;15.12;45.03;101004.13;12253587;19;19922;-84
2023/05/16 08:05:38;;;;;;;;;;;16.30;43.90;;;15.05;44.89;101004.56;12256468;19;20003;-84
2023/05/16 08:09:40;;;;;;;;;;;16.20;43.90;;;15.08;44.85;101007.94;12255468;19;19923;-85
2023/05/16 08:13:41;;;;;;;;;;;16.30;44.00;;;15.12;45.00;101019.91;12251575;19;19919;-84
2023/05/16 08:17:43;;;;;;;;;;;16.30;43.70;;;15.15;45.00;101019.69;12256145;19;20366;-84
2023/05/16 08:21:44;;;;;;;;;;;16.30;43.80;;;15.07;44.94;101011.50;12252926;19;19931;-84
2023/05/16 08:25:46;;;;;;;;;;;16.30;43.70;;;15.20;45.01;101036.00;12257653;19;19922;-84
2023/05/16 08:29:47;;;;;;;;;;;16.40;44.20;;;15.14;45.13;101012.78;12258673;19;19925;-84
2023/05/16 08:33:49;;;;;;;;;;;16.40;43.90;;;15.29;44.95;101038.03;12254258;19;19921;-85
2023/05/16 08:37:51;;;;;;;;;;;16.40;44.10;;;15.28;44.97;101041.56;12257284;19;19923;-84
2023/05/16 08:41:52;;;;;;;;;;;16.40;43.90;;;15.29;45.09;101038.03;12255989;19;19919;-85
2023/05/16 08:45:54;;;;;;;;;;;16.50;43.80;;;15.17;44.97;101015.19;12253765;19;19918;-84
2023/05/16 08:49:57;;;;;;;;;;;16.50;43.80;;;15.18;45.00;101020.34;12250963;19;19919;-84
2023/05/16 08:54:12;;;;;;;;;;;16.50;43.90;;;15.30;44.98;101029.16;12252273;19;19911;-85
2023/05/16 08:58:14;;;;;;;;;;;16.50;43.70;;;15.26;45.13;101025.91;12254180;19;20084;-84
2023/05/16 09:02:16;;;;;;;;;;;16.50;43.40;;;15.39;45.06;101049.59;12255179;19;19911;-84
2023/05/16 09:06:18;;;;;;;;;;;16.50;43.60;;;15.20;45.10;101020.22;12253012;19;19911;-84
2023/05/16 09:10:20;;;;;;;;;;;16.50;44.90;;;15.16;45.17;101021.41;12254203;19;19933;-84
2023/05/16 09:14:21;;;;;;;;;;;16.60;44.10;;;15.37;45.13;101071.69;12252810;19;19911;-85
2023/05/16 09:18:23;;;;;;;;;;;16.50;43.90;;;15.24;45.07;101055.91;12253504;19;20261;-84
2023/05/16 09:22:25;;;;;;;;;;;16.50;43.80;;;15.26;45.07;101059.28;12253114;19;19974;-85
2023/05/16 09:26:27;;;;;;;;;;;16.50;43.90;;;15.17;45.00;101055.47;12254240;19;19926;-84
2023/05/16 09:30:30;;;;;;;;;;;16.50;43.80;;;15.37;45.19;101074.31;12252089;19;19914;-84
2023/05/16 09:34:36;;;;;;;;;;;16.50;43.80;;;15.26;45.15;101068.00;12254412;19;19978;-85
2023/05/16 09:38:38;;;;;;;;;;;16.50;43.70;;;15.26;45.13;101073.28;12251612;19;19930;-85
2023/05/16 09:42:43;;;;;;;;;;;16.50;43.70;;;15.28;45.10;101075.78;12249297;19;20385;-85
2023/05/16 09:46:45;;;;;;;;;;;16.40;44.10;;;15.22;45.18;101069.16;12255219;19;19919;-85
2023/05/16 09:50:52;;;;;;;;;;;16.40;43.80;;;15.30;45.10;101076.53;12249275;19;20385;-85
2023/05/16 09:54:54;;;;;;;;;;;16.50;43.90;;;15.27;45.20;101056.53;12251843;19;20011;-85
2023/05/16 09:58:56;;;;;;;;;;;16.50;43.90;;;15.45;45.05;101074.63;12251661;19;19975;-85
2023/05/16 10:02:59;;;;;;;;;;;16.50;43.80;;;15.34;45.07;101054.34;12251119;19;19919;-85
2023/05/16 10:07:08;;;;;;;;;;;16.60;43.80;;;15.52;45.19;101082.94;12250691;19;19944;-84
2023/05/16 10:11:10;;;;;;;;;;;16.70;43.90;;;15.49;45.34;101070.81;12248059;19;19929;-84
2023/05/16 10:15:13;;;;;;;;;;;16.70;43.80;;;15.55;45.15;101080.91;12249264;19;19919;-85
2023/05/16 10:19:16;;;;;;;;;;;16.70;43.90;;;15.58;45.04;101087.75;12249782;19;20360;-85
2023/05/16 10:23:19;;;;;;;;;;;16.80;43.80;;;15.66;45.26;101098.59;12250452;19;19978;-86
2023/05/16 10:27:21;;;;;;;;;;;16.80;43.70;;;15.60;45.24;101097.22;12265044;19;20324;-84
2023/05/16 10:31:23;;;;;;;;;;;16.80;43.50;;;15.63;45.10;101101.44;12258622;19;19921;-85
2023/05/16 10:35:26;;;;;;;;;;;16.80;43.30;;;15.64;45.23;101100.50;12263441;19;19911;-84
2023/05/16 10:39:28;;;;;;;;;;;16.80;43.40;;;15.70;45.09;101100.94;12261680;19;19915;-84
2023/05/16 10:43:29;;;;;;;;;;;16.80;43.50;;;15.76;45.16;101102.28;12262684;19;19971;-85
2023/05/16 10:47:32;;;;;;;;;;;16.90;43.30;;;15.70;45.32;101094.81;12264613;19;19934;-85
2023/05/16 10:51:36;;;;;;;;;;;16.90;43.50;;;15.75;45.11;101103.25;12257866;19;20256;-84
2023/05/16 10:55:44;;;;;;;;;;;16.90;43.30;;;15.66;45.18;101093.31;12264158;19;19919;-84
2023/05/16 10:59:48;;;;;;;;;;;17.00;43.90;;;15.79;45.28;101131.03;12262196;19;19910;-84
2023/05/16 11:03:59;;;;;;;;;;;16.90;43.40;;;15.84;45.17;101141.25;12263748;19;19974;-85
2023/05/16 11:08:07;;;;;;;;;;;16.90;43.40;;;15.85;45.22;101143.78;12262477;19;19911;-85
2023/05/16 11:12:09;;;;;;;;;;;17.00;43.30;;;15.85;45.19;101130.63;12256414;19;21615;-85
2023/05/16 11:16:40;;;;;;;;;;;17.00;43.40;;;15.86;45.24;101131.44;12261771;19;20003;-84
2023/05/16 11:20:42;;;;;;;;;;;17.00;43.50;;;15.90;45.29;101131.13;12257724;19;20306;-84
2023/05/16 11:24:50;;;;;;;;;;;17.10;43.40;;;15.97;45.19;101138.59;12260630;19;19939;-84
2023/05/16 11:28:52;;;;;;;;;;;17.10;43.30;;;15.77;45.14;101105.75;12261588;19;19970;-84
2023/05/16 11:32:54;;;;;;;;;;;17.10;43.60;;;15.83;45.27;101121.97;12254979;19;20277;-84
2023/05/16 11:36:57;;;;;;;;;;;17.10;43.50;;;15.90;45.15;101138.16;12257029;19;19929;-84
2023/05/16 11:41:03;;;;;;;;;;;17.10;43.40;;;15.72;45.08;101124.53;12260449;19;19911;-84
2023/05/16 11:45:06;;;;;;;;;;;17.10;43.60;;;15.65;45.16;101131.13;12260153;19;20337;-85
2023/05/16 11:49:11;;;;;;;;;;;17.10;43.40;;;15.84;45.23;101176.31;12260895;19;19919;-85
2023/05/16 11:53:13;;;;;;;;;;;17.00;43.20;;;15.80;45.02;101163.50;12258994;19;19918;-86
2023/05/16 11:57:15;;;;;;;;;;;17.00;43.10;;;15.83;45.02;101168.53;12261563;19;19911;-85
2023/05/16 12:01:17;;;;;;;;;;;16.90;43.10;;;15.60;45.08;101128.81;12257398;19;20244;-85
2023/05/16 12:05:23;;;;;;;;;;;17.00;43.10;;;15.86;45.21;101170.97;12261879;19;19951;-85
2023/05/16 12:09:25;;;;;;;;;;;17.00;43.10;;;15.84;45.10;101165.78;12261704;19;19907;-85
2023/05/16 12:13:27;;;;;;;;;;;17.00;43.10;;;15.92;45.16;101181.06;12257860;19;20297;-85
2023/05/16 12:17:29;;;;;;;;;;;17.10;43.10;;;15.96;45.05;101193.06;12260791;19;19911;-85
2023/05/16 12:21:31;;;;;;;;;;;17.10;43.10;;;15.99;45.13;101189.38;12256739;19;20396;-85
2023/05/16 12:25:36;;;;;;;;;;;17.10;43.00;;;15.84;44.94;101159.69;12260875;19;20436;-84
2023/05/16 12:29:38;;;;;;;;;;;17.10;43.20;;;15.98;45.15;101185.88;12254644;19;19941;-85
2023/05/16 12:33:39;;;;;;;;;;;17.20;43.10;;;16.06;45.05;101196.72;12259608;19;19970;-85
2023/05/16 12:37:43;;;;;;;;;;;17.20;42.90;;;16.07;45.13;101193.16;12260261;19;19936;-85
2023/05/16 12:41:45;;;;;;;;;;;17.20;42.80;;;16.10;45.05;101177.13;12259196;19;19926;-85
2023/05/16 12:45:54;;;;;;;;;;;17.30;42.90;;;16.26;45.11;101186.56;12259867;19;19915;-85
2023/05/16 12:49:56;;;;;;;;;;;17.30;42.80;;;16.10;45.18;101142.88;12261157;19;19911;-86
2023/05/16 12:54:06;;;;;;;;;;;17.40;42.90;;;16.30;44.91;101167.78;12259113;19;20527;-85
2023/05/16 12:58:12;;;;;;;;;;;17.50;42.70;;;16.42;45.22;101175.75;12259684;19;19990;-85
2023/05/16 13:02:13;;;;;;;;;;;17.60;42.60;;;16.46;45.04;101167.50;12256829;19;19919;-85
2023/05/16 13:06:15;;;;;;;;;;;17.60;42.60;;;16.43;45.03;101159.00;12263440;19;19939;-85
2023/05/16 13:10:17;;;;;;;;;;;17.70;42.60;;;16.60;44.98;101169.97;12260544;19;19927;-84
2023/05/16 13:14:19;;;;;;;;;;;17.70;42.50;;;16.60;45.12;101163.84;12256457;19;19926;-85
2023/05/16 13:18:20;;;;;;;;;;;17.80;42.60;;;16.67;45.04;101167.75;12258949;19;19926;-84
2023/05/16 13:22:21;;;;;;;;;;;17.90;42.60;;;16.47;45.01;101120.88;12258476;19;20637;-84
2023/05/16 13:26:22;;;;;;;;;;;17.90;42.60;;;16.55;45.04;101123.81;12259375;19;19923;-84
2023/05/16 13:30:24;;;;;;;;;;;17.90;42.50;;;16.72;44.76;101155.06;12257509;19;19926;-84
2023/05/16 13:34:26;;;;;;;;;;;18.00;42.50;;;16.80;45.19;101160.63;12249417;19;19935;-85
2023/05/16 13:38:27;;;;;;;;;;;18.00;42.50;;;16.72;45.08;101133.13;12258326;19;19923;-85
2023/05/16 13:42:29;;;;;;;;;;;18.10;42.50;;;16.89;45.13;101134.53;12253852;19;19930;-85
2023/05/16 13:46:30;;;;;;;;;;;18.20;42.60;;;17.12;45.25;101149.47;12255921;19;19935;-84
2023/05/16 13:50:32;;;;;;;;;;;18.30;42.50;;;17.31;44.96;101155.94;12253609;19;19926;-84
2023/05/16 13:54:33;;;;;;;;;;;18.40;42.50;;;17.40;45.09;101147.34;12256853;19;19919;-84
2023/05/16 13:58:35;;;;;;;;;;;18.60;42.40;;;17.56;44.94;101158.38;12255251;19;20007;-85
2023/05/16 14:02:41;;;;;;;;;;;18.80;42.20;;;17.67;44.72;101162.84;12254444;19;19982;-85
2023/05/16 14:06:42;;;;;;;;;;;18.80;41.90;;;17.71;44.71;101172.19;12255553;19;19915;-84
2023/05/16 14:10:44;;;;;;;;;;;18.90;41.90;;;17.76;45.07;101169.19;12255218;19;20254;-85
2023/05/16 14:14:45;;;;;;;;;;;19.00;41.80;;;17.56;44.90;101128.50;12256103;19;20356;-85
2023/05/16 14:18:47;;;;;;;;;;;19.00;41.60;;;17.84;44.84;101161.53;12254994;19;19919;-85
2023/05/16 14:22:49;;;;;;;;;;;19.00;41.30;;;17.68;44.84;101133.66;12252958;19;19919;-85
2023/05/16 14:26:53;;;;;;;;;;;19.10;41.20;;;17.60;44.76;101120.19;12256854;19;19915;-85
2023/05/16 14:30:55;;;;;;;;;;;19.10;41.20;;;17.67;44.71;101129.34;12252352;19;19915;-85
2023/05/16 14:34:56;;;;;;;;;;;19.20;40.90;;;17.90;44.55;101169.84;12255214;19;19914;-85
2023/05/16 14:38:58;;;;;;;;;;;19.20;40.90;;;17.54;44.56;101107.50;12252712;19;19907;-85
2023/05/16 14:43:02;;;;;;;;;;;19.20;40.60;;;18.01;44.68;101176.06;12254719;19;19915;-85
2023/05/16 14:47:05;;;;;;;;;;;19.20;40.50;;;17.75;44.48;101117.34;12257039;19;19935;-84
2023/05/16 14:51:07;;;;;;;;;;;19.20;40.80;;;18.04;44.21;101165.25;12253725;19;20337;-85
2023/05/16 14:55:08;;;;;;;;;;;19.30;40.70;;;18.08;44.33;101154.31;12258064;19;20393;-85
2023/05/16 14:59:10;;;;;;;;;;;19.30;40.80;;;18.08;44.24;101149.00;12256334;19;19923;-85
2023/05/16 15:03:12;;;;;;;;;;;19.40;40.70;;;17.99;44.30;101141.84;12254476;19;19914;-89
2023/05/16 15:07:14;;;;;;;;;;;19.40;40.10;;;18.16;44.15;101164.25;12245503;19;20242;-89
2023/05/16 15:11:15;;;;;;;;;;;19.40;40.20;;;18.06;44.00;101143.00;12243134;19;20372;-89
2023/05/16 15:15:17;;;;;;;;;;;19.40;40.40;;;18.13;44.28;101157.41;12259656;19;20231;-88
2023/05/16 15:19:19;;;;;;;;;;;19.50;40.50;;;18.37;44.20;101179.38;12257905;19;19919;-89
2023/05/16 15:23:21;;;;;;;;;;;19.50;40.50;;;18.19;44.25;101131.47;12256406;19;19914;-90
2023/05/16 15:27:22;;;;;;;;;;;19.60;40.50;;;18.53;44.33;101175.34;12255423;19;19922;-89
2023/05/16 15:31:23;;;;;;;;;;;19.70;40.30;;;18.57;44.02;101168.84;12254420;19;19939;-89
2023/05/16 15:35:25;;;;;;;;;;;19.80;40.40;;;18.70;44.10;101171.31;12259418;19;19926;-89
2023/05/16 15:39:27;;;;;;;;;;;19.90;39.90;;;18.66;43.99;101161.09;12257976;19;19914;-89
2023/05/16 15:43:28;;;;;;;;;;;19.90;39.90;;;18.73;43.97;101175.53;12257032;19;19914;-89
2023/05/16 15:47:30;;;;;;;;;;;19.90;39.80;;;18.79;43.96;101165.31;12256579;19;19918;-89
2023/05/16 15:51:31;;;;;;;;;;;20.00;40.10;;;18.77;43.79;101155.81;12250145;19;20333;-90
2023/05/16 15:55:32;;;;;;;;;;;20.00;40.00;;;18.91;43.92;101157.31;12255449;19;19952;-89
2023/05/16 15:59:34;;;;;;;;;;;20.10;39.70;;;19.00;43.76;101165.31;12251786;19;19918;-89
2023/05/16 16:03:35;;;;;;;;;;;20.20;40.00;;;19.02;43.54;101150.16;12254728;19;20273;-89
2023/05/16 16:07:36;;;;;;;;;;;20.30;39.30;;;19.15;43.67;101167.66;12253768;19;19922;-88
2023/05/16 16:11:38;;;;;;;;;;;20.30;39.50;;;19.16;43.58;101177.28;12246889;19;20283;-89
2023/05/16 16:15:40;;;;;;;;;;;20.40;39.60;;;19.09;43.22;101152.28;12254596;19;20264;-89
2023/05/16 16:19:42;;;;;;;;;;;20.40;39.40;;;19.06;43.52;101142.78;12253517;19;19926;-89
2023/05/16 16:23:43;;;;;;;;;;;20.40;39.40;;;19.21;43.09;101175.91;12253736;19;20022;-89
2023/05/16 16:27:45;;;;;;;;;;;20.40;39.50;;;19.17;43.22;101155.09;12256295;19;19915;-89
2023/05/16 16:31:47;;;;;;;;;;;20.40;39.30;;;19.11;43.19;101152.97;12252156;19;20267;-89
2023/05/16 16:35:50;;;;;;;;;;;20.40;39.10;;;19.14;43.16;101147.44;12255036;19;19915;-89
2023/05/16 16:39:52;;;;;;;;;;;20.40;39.20;;;19.08;42.93;101134.72;12249962;19;19922;-89
2023/05/16 16:43:53;;;;;;;;;;;20.40;39.10;;;19.15;43.18;101149.13;12254548;19;20608;-89
2023/05/16 16:47:55;;;;;;;;;;;20.30;39.10;;;19.12;42.92;101136.13;12249933;19;19925;-89
2023/05/16 16:51:56;;;;;;;;;;;20.30;39.10;;;19.11;43.11;101147.69;12248226;19;19915;-89
2023/05/16 16:55:58;;;;;;;;;;;20.30;39.00;;;19.12;42.69;101159.94;12253018;19;19910;-89
2023/05/16 16:59:59;;;;;;;;;;;20.30;38.70;;;19.00;42.70;101146.78;12250681;19;19929;-89
2023/05/16 17:04:01;;;;;;;;;;;20.30;38.70;;;18.99;42.46;101160.16;12251188;19;19903;-88
2023/05/16 17:08:02;;;;;;;;;;;20.20;38.60;;;18.93;42.75;101150.94;12249984;19;20546;-90
2023/05/16 17:12:07;;;;;;;;;;;20.10;37.90;;;18.91;42.71;101173.19;12252073;19;19907;-89
2023/05/16 17:16:08;;;;;;;;;;;20.10;38.40;;;18.87;42.55;101166.47;12253061;19;20334;-89
2023/05/16 17:20:11;;;;;;;;;;;20.00;38.10;;;18.60;42.48;101129.88;12255156;19;19930;-89
2023/05/16 17:24:13;;;;;;;;;;;19.90;38.30;;;18.73;42.36;101159.66;12250621;19;19915;-89
2023/05/16 17:28:15;;;;;;;;;;;19.90;38.50;;;18.71;42.33;101170.38;12251746;19;20269;-89
2023/05/16 17:32:18;;;;;;;;;;;19.90;38.20;;;18.67;42.37;101173.38;12247288;19;19914;-90
2023/05/16 17:36:19;;;;;;;;;;;19.80;38.40;;;18.65;42.21;101191.19;12249401;19;19927;-90
2023/05/16 17:40:21;;;;;;;;;;;19.80;38.40;;;18.52;42.38;101178.97;12249188;19;19906;-90
2023/05/16 17:44:23;;;;;;;;;;;19.80;38.50;;;18.58;42.19;101191.69;12252170;19;20030;-89
2023/05/16 17:48:24;;;;;;;;;;;19.70;38.70;;;18.35;42.11;101160.97;12252234;19;19922;-89
2023/05/16 17:52:26;;;;;;;;;;;19.70;38.60;;;18.41;42.01;101189.56;12245890;19;19921;-89
2023/05/16 17:56:27;;;;;;;;;;;19.60;38.30;;;18.35;42.03;101192.72;12250128;19;19954;-89
2023/05/16 18:00:29;;;;;;;;;;;19.60;38.50;;;18.32;41.96;101203.53;12246348;19;19923;-89
2023/05/16 18:04:30;;;;;;;;;;;19.50;38.40;;;18.33;41.99;101218.44;12248263;19;19922;-90
2023/05/16 18:08:32;;;;;;;;;;;19.50;38.40;;;18.16;42.09;101205.72;12248554;19;19951;-89
2023/05/16 18:12:34;;;;;;;;;;;19.40;38.40;;;18.25;41.94;101228.78;12243224;19;20363;-89